»·PEaware :: TPX565 KONT-KLAS

TPX565 :: KONT-KLAS

FLIGHT INFORMATION

Flight Status: Arrived
Operator: ATP Experience
More flights by this operator :: More flights under this callsign
Pilot: Dave P. (45)
Aircraft: BOEING 737-600
(B736)
More flights by this aircraft type
Origin: KONT Ontario Intl
United States
Destination: KLAS McCarran Intl
United States
More flights between these airports :: More routes between these airports
Route: SNSHN4 MISEN KEPEC6
File this flight plan on PilotEdge
Remarks:
Altitude:
(Current/Filed)
29,000ft
Speed:
(Current/Filed)
458kts
Departed: 20-Jul-19 07:11 AM
Arrived: 20-Jul-19 07:54 AM
Distance/Time
Traveled:
171nm/0:42
Distance/Time
To Go:
Arrived

Flight Plot

Page will automatically refresh every two minutes.

Flight plan parsing failed; only flown route is shown


Map Options




Map Legend


Flown Route
Filed Route
Departure Airport
Arrival Airport
Navaid (VOR, NDB)
Fix

Horizontal Profiles

Position Reports

Time Latitude Longitude Heading Altitude Ground
Speed
20-Jul-19 06:33 34.059832 -117.599824 37 952ft 0kts
20-Jul-19 06:34 34.059832 -117.599824 37 952ft 0kts
20-Jul-19 06:35 34.059832 -117.599824 37 952ft 0kts
20-Jul-19 06:36 34.059832 -117.599824 37 952ft 0kts
20-Jul-19 06:37 34.059832 -117.599824 37 952ft 0kts
20-Jul-19 06:38 34.059832 -117.599824 37 952ft 0kts
20-Jul-19 06:39 34.059832 -117.599824 37 952ft 0kts
20-Jul-19 06:40 34.059832 -117.599824 37 952ft 0kts
20-Jul-19 06:41 34.059832 -117.599824 37 952ft 0kts
20-Jul-19 06:42 34.059832 -117.599824 37 952ft 0kts
20-Jul-19 06:43 34.059832 -117.599824 37 952ft 0kts
20-Jul-19 06:44 34.059832 -117.599824 37 952ft 0kts
20-Jul-19 06:45 34.059832 -117.599824 37 952ft 0kts
20-Jul-19 06:46 34.059832 -117.599824 37 952ft 0kts
20-Jul-19 06:47 34.059832 -117.599824 37 952ft 0kts
20-Jul-19 06:48 34.059832 -117.599824 37 952ft 0kts
20-Jul-19 06:49 34.059832 -117.599824 37 952ft 0kts
20-Jul-19 06:50 34.059832 -117.599824 37 952ft 0kts
20-Jul-19 06:51 34.059832 -117.599824 37 952ft 0kts
20-Jul-19 06:52 34.059832 -117.599824 37 952ft 0kts
20-Jul-19 06:53 34.059832 -117.599824 37 952ft 0kts
20-Jul-19 06:54 34.059832 -117.599824 37 952ft 0kts
20-Jul-19 06:55 34.059832 -117.599824 37 952ft 0kts
20-Jul-19 06:56 34.059832 -117.599824 37 952ft 0kts
20-Jul-19 06:57 34.059832 -117.599824 37 952ft 0kts
20-Jul-19 06:58 34.059832 -117.599824 37 952ft 0kts
20-Jul-19 06:59 34.059832 -117.599824 37 952ft 0kts
20-Jul-19 07:00 34.059832 -117.599824 37 952ft 0kts
20-Jul-19 07:01 34.059504 -117.600125 37 951ft 2kts
20-Jul-19 07:02 34.059466 -117.600160 37 951ft 0kts
20-Jul-19 07:03 34.059466 -117.600160 37 951ft 0kts
20-Jul-19 07:04 34.059466 -117.600160 37 951ft 0kts
20-Jul-19 07:05 34.059322 -117.599929 157 951ft 0kts
20-Jul-19 07:06 34.058902 -117.595271 90 951ft 23kts
20-Jul-19 07:07 34.058873 -117.588120 90 951ft 18kts
20-Jul-19 07:08 34.058472 -117.582692 168 951ft 9kts
20-Jul-19 07:09 34.056773 -117.583063 261 951ft 6kts
20-Jul-19 07:10 34.056888 -117.609329 270 1349ft 146kts
20-Jul-19 07:11 34.057825 -117.659694 269 3361ft 185kts
20-Jul-19 07:12 34.065489 -117.736497 285 5563ft 267kts
20-Jul-19 07:13 34.101141 -117.817925 309 9098ft 286kts
20-Jul-19 07:14 34.162632 -117.886254 318 11769ft 333kts
20-Jul-19 07:15 34.239372 -117.961638 330 13907ft 369kts
20-Jul-19 07:16 34.338729 -117.939781 42 16452ft 403kts
20-Jul-19 07:17 34.376995 -117.811307 82 19231ft 423kts
20-Jul-19 07:18 34.388727 -117.666521 86 21790ft 441kts
20-Jul-19 07:19 34.433729 -117.526484 54 23969ft 460kts
20-Jul-19 07:20 34.512108 -117.401249 52 26095ft 474kts
20-Jul-19 07:21 34.592053 -117.270678 52 27975ft 487kts
20-Jul-19 07:22 34.672734 -117.138367 53 28987ft 488kts
20-Jul-19 07:23 34.752956 -117.005972 53 28962ft 485kts
20-Jul-19 07:24 34.832571 -116.873636 53 28907ft 484kts
20-Jul-19 07:25 34.911890 -116.741035 53 28873ft 485kts
20-Jul-19 07:26 34.988701 -116.606393 55 28529ft 478kts
20-Jul-19 07:27 35.063658 -116.472886 55 25371ft 469kts
20-Jul-19 07:29 35.142940 -116.352313 45 23134ft 447kts
20-Jul-19 07:30 35.229090 -116.244768 45 21459ft 439kts
20-Jul-19 07:31 35.313179 -116.138961 45 19845ft 427kts
20-Jul-19 07:32 35.395040 -116.036024 45 18274ft 415kts
20-Jul-19 07:33 35.474493 -115.935880 46 16854ft 405kts
20-Jul-19 07:34 35.552176 -115.837392 46 15373ft 398kts
20-Jul-19 07:35 35.626157 -115.743039 46 13950ft 364kts
20-Jul-19 07:36 35.693148 -115.657514 46 13006ft 332kts
20-Jul-19 07:37 35.759808 -115.581549 23 12985ft 330kts
20-Jul-19 07:38 35.849974 -115.569756 359 13005ft 326kts
20-Jul-19 07:39 35.941090 -115.565042 3 13002ft 328kts
20-Jul-19 07:40 36.000203 -115.490475 84 12212ft 323kts
20-Jul-19 07:41 36.026172 -115.386650 77 11098ft 303kts
20-Jul-19 07:42 36.025097 -115.287696 99 9960ft 283kts
20-Jul-19 07:43 36.017823 -115.191454 98 8896ft 279kts
20-Jul-19 07:44 36.011447 -115.097887 99 8145ft 259kts
20-Jul-19 07:45 36.006291 -115.011792 98 7922ft 245kts
20-Jul-19 07:46 36.001536 -114.933026 99 6686ft 224kts
20-Jul-19 07:47 35.999241 -114.860045 71 5338ft 206kts
20-Jul-19 07:48 36.051192 -114.840455 2 4475ft 202kts
20-Jul-19 07:49 36.074388 -114.887978 264 4526ft 184kts
20-Jul-19 07:49 36.073872 -114.940688 264 4485ft 180kts
20-Jul-19 07:50 36.073779 -115.003070 264 4120ft 180kts
20-Jul-19 07:52 36.073717 -115.068085 265 3111ft 147kts
20-Jul-19 07:52 36.073685 -115.108988 265 2474ft 140kts
20-Jul-19 07:53 36.074021 -115.144221 292 2189ft 15kts
20-Jul-19 07:54 36.076084 -115.146554 0 2189ft 12kts
20-Jul-19 07:55 36.078352 -115.144701 95 2189ft 22kts
20-Jul-19 07:56 36.078784 -115.139592 44 2189ft 10kts
20-Jul-19 07:57 36.080919 -115.137860 316 2189ft 5kts
20-Jul-19 07:58 36.081172 -115.138235 308 2189ft 0kts
20-Jul-19 07:59 36.081172 -115.138235 308 2189ft 0kts
20-Jul-19 08:00 36.081172 -115.138235 308 2189ft 0kts
20-Jul-19 08:01 36.081172 -115.138235 308 2189ft 0kts
20-Jul-19 08:02 36.081172 -115.138235 308 2189ft 0kts
20-Jul-19 08:03 36.081172 -115.138235 308 2189ft 0kts
20-Jul-19 08:04 36.081172 -115.138235 308 2189ft 0kts
20-Jul-19 08:05 36.081172 -115.138235 308 2189ft 0kts
20-Jul-19 08:06 36.081172 -115.138235 308 2189ft 0kts
20-Jul-19 08:07 36.081172 -115.138235 308 2189ft 0kts

Navigation Log

Ident Type
Flight plan parsing failed, navigation log unavailable